Time;durP1;ratioP1;P1;durP2;ratioP2;P2;SDS_P1;SDS_P2;PMS_P1;PMS_P2;Temp;Humidity;BMP_temperature;BMP_pressure;BME280_temperature;BME280_humidity;BME280_pressure;Samples;Min_cycle;Max_cycle;Signal;HPM_P1;HPM_P2
2021/01/30 00:02:21;;;;;;;2.10;2.00;;;6.40;99.90;;;7.05;99.08;96514.47;5247489;28;20620;-75
2021/01/30 00:04:53;;;;;;;2.63;2.43;;;6.50;99.90;;;7.06;98.66;96511.13;5247789;28;20750;-75
2021/01/30 00:07:25;;;;;;;2.73;2.17;;;6.40;99.90;;;6.92;98.40;96519.75;5252362;28;20192;-75
2021/01/30 00:09:58;;;;;;;2.63;2.43;;;6.40;99.90;;;7.07;98.06;96517.97;5267965;28;20585;-75
2021/01/30 00:12:31;;;;;;;2.33;2.20;;;6.40;99.90;;;6.87;98.88;96529.69;5268960;28;20198;-73
2021/01/30 00:15:05;;;;;;;2.77;2.47;;;6.30;99.90;;;6.90;98.55;96534.06;5268468;28;20196;-74
2021/01/30 00:17:37;;;;;;;3.23;2.30;;;6.30;99.90;;;6.88;98.72;96535.63;5268022;28;20201;-75
2021/01/30 00:20:14;;;;;;;4.20;2.97;;;6.30;99.90;;;6.79;98.52;96545.34;5252487;28;20621;-75
2021/01/30 00:22:46;;;;;;;3.00;2.43;;;6.30;99.90;;;6.79;98.60;96550.44;5248180;28;20224;-75
2021/01/30 00:25:22;;;;;;;2.50;2.30;;;6.30;99.90;;;6.85;98.97;96551.59;5248588;28;20201;-75
2021/01/30 00:27:55;;;;;;;2.87;2.67;;;6.30;99.90;;;6.81;98.35;96559.88;5260363;28;20230;-75
2021/01/30 00:30:30;;;;;;;2.57;2.47;;;6.30;99.90;;;6.84;98.82;96565.09;5269475;28;20291;-75
2021/01/30 00:33:04;;;;;;;3.77;2.67;;;6.30;99.90;;;6.86;98.88;96563.50;5257995;28;20215;-76
2021/01/30 00:35:37;;;;;;;3.70;2.70;;;6.30;99.90;;;6.81;99.26;96566.59;5251084;28;20330;-75
2021/01/30 00:38:10;;;;;;;3.17;2.87;;;6.30;99.90;;;6.74;99.96;96573.91;5267816;28;20195;-75
2021/01/30 00:40:43;;;;;;;3.93;2.77;;;6.30;99.90;;;6.82;99.41;96570.91;5269080;28;20199;-73
2021/01/30 00:43:15;;;;;;;3.97;2.70;;;6.30;99.90;;;6.81;99.48;96574.22;5252686;28;20722;-75
2021/01/30 00:45:47;;;;;;;5.77;2.53;;;6.30;99.90;;;6.80;98.93;96568.25;5247709;28;20185;-74
2021/01/30 00:48:20;;;;;;;3.43;2.23;;;6.20;99.90;;;6.81;99.45;96564.94;5247190;28;20211;-75
2021/01/30 00:50:52;;;;;;;2.70;2.33;;;6.30;99.90;;;6.81;99.25;96569.13;5247763;28;20204;-75
2021/01/30 00:53:24;;;;;;;3.70;2.40;;;6.30;99.90;;;6.83;99.09;96572.63;5248345;28;20226;-76
2021/01/30 00:55:57;;;;;;;3.97;2.47;;;6.30;99.90;;;6.81;98.46;96584.38;5247182;28;20205;-75
2021/01/30 00:58:29;;;;;;;2.83;2.50;;;6.30;99.90;;;6.67;98.67;96582.03;5247719;28;20287;-75
2021/01/30 01:01:01;;;;;;;2.80;2.50;;;6.20;99.90;;;6.70;99.44;96582.16;5247513;28;20224;-75
2021/01/30 01:03:33;;;;;;;3.13;2.43;;;6.20;99.90;;;6.74;99.21;96585.72;5247421;28;20217;-75
2021/01/30 01:06:07;;;;;;;6.70;2.77;;;6.20;99.90;;;6.68;99.51;96583.75;5247101;28;20203;-75
2021/01/30 01:08:39;;;;;;;3.37;2.73;;;6.20;99.90;;;6.65;99.90;96582.72;5247268;28;20201;-75
2021/01/30 01:11:12;;;;;;;3.37;2.87;;;6.20;99.90;;;6.64;100.00;96574.25;5247829;28;20664;-75
2021/01/30 01:13:45;;;;;;;4.33;2.87;;;6.20;99.90;;;6.66;100.00;96580.25;5247872;28;20676;-72
2021/01/30 01:16:18;;;;;;;2.93;2.10;;;6.20;99.90;;;6.66;100.00;96571.78;5247373;28;20279;-75
2021/01/30 01:18:50;;;;;;;2.70;2.50;;;6.20;99.90;;;6.77;100.00;96581.69;5255941;28;20207;-75
2021/01/30 01:21:22;;;;;;;4.03;2.70;;;6.20;99.90;;;6.71;99.89;96583.91;5269245;28;20277;-75
2021/01/30 01:23:54;;;;;;;2.50;2.30;;;6.10;99.90;;;6.75;99.73;96580.75;5269255;28;20214;-75
2021/01/30 01:26:28;;;;;;;2.67;2.30;;;6.10;99.90;;;6.84;99.34;96570.19;5268411;28;20283;-75
2021/01/30 01:29:00;;;;;;;2.87;2.67;;;6.10;99.90;;;6.87;98.18;96565.25;5268556;28;20714;-75
2021/01/30 01:31:32;;;;;;;2.60;2.17;;;6.10;99.90;;;6.97;97.13;96561.50;5269889;28;20195;-75
2021/01/30 01:34:05;;;;;;;2.87;2.20;;;6.20;99.90;;;6.87;96.43;96564.38;5269582;28;20264;-75
2021/01/30 01:36:37;;;;;;;2.43;2.20;;;6.10;99.90;;;6.90;96.48;96559.47;5269825;28;20227;-75
2021/01/30 01:39:09;;;;;;;2.40;2.20;;;6.20;99.90;;;6.79;95.79;96560.59;5269649;28;20203;-75
2021/01/30 01:41:42;;;;;;;2.40;2.17;;;6.10;99.90;;;6.64;96.29;96578.44;5270992;28;20664;-76
2021/01/30 01:44:14;;;;;;;2.63;2.43;;;6.00;99.90;;;6.53;96.93;96580.44;5270455;28;20661;-75
2021/01/30 01:46:46;;;;;;;2.47;2.00;;;6.00;99.90;;;6.49;97.43;96587.00;5270100;28;20659;-75
2021/01/30 01:49:26;;;;;;;3.50;2.53;;;6.00;99.90;;;6.50;97.37;96577.75;5271512;28;20210;-75
2021/01/30 01:52:21;;;;;;;2.80;2.60;;;6.00;99.90;;;6.56;97.72;96584.81;5271293;28;20263;-75
2021/01/30 01:54:59;;;;;;;4.50;2.60;;;6.00;99.90;;;6.63;98.61;96590.25;5271091;28;20204;-75
2021/01/30 01:57:33;;;;;;;2.53;2.30;;;6.10;99.90;;;6.62;98.10;96585.97;5251987;28;20263;-75
2021/01/30 02:00:08;;;;;;;2.20;2.10;;;6.00;99.90;;;6.61;97.30;96580.81;5250784;28;20204;-75
2021/01/30 02:02:40;;;;;;;2.40;2.20;;;6.00;99.90;;;6.67;96.22;96578.63;5270457;28;20747;-73
2021/01/30 02:05:18;;;;;;;2.13;1.97;;;6.00;99.90;;;6.81;96.47;96570.03;5270219;28;20238;-73
2021/01/30 02:07:52;;;;;;;2.50;2.10;;;6.10;99.90;;;6.77;95.67;96574.06;5249160;28;20269;-75
2021/01/30 02:10:27;;;;;;;2.63;2.00;;;6.10;99.90;;;6.69;96.61;96575.34;5258969;28;20192;-74
2021/01/30 02:13:05;;;;;;;2.03;1.90;;;6.10;99.90;;;6.85;95.95;96571.91;5270013;28;20626;-76
2021/01/30 02:15:38;;;;;;;2.00;1.90;;;6.10;99.90;;;6.81;95.26;96564.94;5267642;28;20203;-76
2021/01/30 02:18:27;;;;;;;2.63;2.10;;;6.10;99.90;;;6.86;96.40;96562.63;5269386;28;20188;-75
2021/01/30 02:21:55;;;;;;;2.43;2.20;;;6.10;99.90;;;6.85;95.13;96560.88;5268958;28;20218;-75
2021/01/30 02:25:21;;;;;;;2.73;2.13;;;6.10;99.90;;;6.93;95.32;96559.59;5267770;28;20225;-74
2021/01/30 02:28:20;;;;;;;2.20;2.07;;;6.20;99.90;;;6.79;94.17;96560.59;5246683;28;20282;-75
2021/01/30 02:31:23;;;;;;;2.30;2.20;;;6.10;99.90;;;6.80;95.64;96557.25;5266880;28;20200;-75
2021/01/30 02:34:42;;;;;;;2.97;2.27;;;6.10;99.90;;;6.85;96.25;96555.81;5269073;28;20219;-75
2021/01/30 02:37:19;;;;;;;2.90;2.10;;;6.10;99.90;;;6.85;95.66;96556.69;5267599;28;20222;-75
2021/01/30 02:39:54;;;;;;;2.53;2.30;;;6.10;99.90;;;6.81;94.52;96558.97;5268541;28;20199;-74
2021/01/30 02:42:30;;;;;;;2.80;2.70;;;6.10;99.90;;;6.74;94.96;96563.75;5254779;28;20216;-75
2021/01/30 02:45:09;;;;;;;3.73;2.20;;;6.10;99.90;;;6.76;95.98;96567.25;5247343;28;20206;-76
2021/01/30 02:47:47;;;;;;;2.70;2.17;;;6.10;99.90;;;6.83;95.26;96557.38;5246581;28;20201;-74
2021/01/30 02:50:25;;;;;;;2.10;2.00;;;6.10;99.90;;;6.88;95.65;96555.97;5247589;28;20205;-75
2021/01/30 02:53:03;;;;;;;2.53;2.00;;;6.20;99.90;;;6.85;93.96;96560.88;5268317;28;20219;-75
2021/01/30 02:55:37;;;;;;;2.87;2.30;;;6.20;99.90;;;6.87;95.14;96559.31;5267044;28;20200;-75
2021/01/30 02:58:13;;;;;;;2.20;1.90;;;6.20;99.90;;;6.82;95.04;96551.44;5267509;28;20192;-76
2021/01/30 03:00:47;;;;;;;2.30;2.10;;;6.10;99.90;;;6.97;94.79;96552.19;5267102;28;20195;-75
2021/01/30 03:03:20;;;;;;;2.20;1.90;;;6.10;99.90;;;7.01;94.72;96553.25;5267560;28;20310;-75
2021/01/30 03:05:59;;;;;;;4.13;2.10;;;6.20;99.90;;;6.91;94.08;96558.66;5267699;28;20242;-76
2021/01/30 03:08:39;;;;;;;2.20;2.10;;;6.10;99.90;;;6.88;94.62;96558.50;5267670;28;20242;-76
2021/01/30 03:11:16;;;;;;;6.73;1.93;;;6.10;99.90;;;6.96;94.29;96554.69;5263463;28;20203;-75
2021/01/30 03:13:55;;;;;;;2.23;2.13;;;6.10;99.90;;;6.88;94.13;96551.75;5246837;28;20318;-74
2021/01/30 03:16:34;;;;;;;2.27;2.10;;;6.20;99.90;;;6.80;94.61;96552.16;5245438;28;20229;-73
2021/01/30 03:19:11;;;;;;;2.20;2.00;;;6.10;99.90;;;6.86;93.86;96548.25;5247634;28;20211;-75
2021/01/30 03:21:45;;;;;;;2.00;1.80;;;6.10;99.90;;;6.75;94.84;96550.28;5246702;28;20224;-73
2021/01/30 03:24:19;;;;;;;2.40;2.20;;;6.10;99.90;;;6.88;95.07;96556.81;5247394;28;20763;-76
2021/01/30 03:26:51;;;;;;;2.27;2.00;;;6.10;99.90;;;6.82;94.38;96548.91;5246258;28;20192;-76
2021/01/30 03:29:23;;;;;;;1.60;1.50;;;6.10;99.90;;;6.77;94.32;96552.88;5251271;28;20739;-76
2021/01/30 03:31:55;;;;;;;1.90;1.80;;;6.00;99.90;;;6.73;94.91;96541.69;5251369;28;20232;-75
2021/01/30 03:34:28;;;;;;;2.30;2.10;;;6.10;99.90;;;6.74;95.60;96538.34;5251332;28;20684;-75
2021/01/30 03:37:00;;;;;;;2.30;2.20;;;6.10;99.90;;;6.74;95.11;96543.44;5251105;28;20666;-75
2021/01/30 03:39:33;;;;;;;2.43;1.80;;;6.00;99.90;;;6.69;94.58;96542.31;5260718;28;20287;-75
2021/01/30 03:42:05;;;;;;;3.63;2.20;;;6.10;99.90;;;6.71;94.83;96550.91;5272328;28;20223;-75
2021/01/30 03:44:38;;;;;;;2.00;1.90;;;6.00;99.90;;;6.75;95.60;96541.75;5271502;28;20275;-75
2021/01/30 03:47:10;;;;;;;1.83;1.73;;;6.00;99.90;;;6.76;95.45;96541.84;5271301;28;20222;-75
2021/01/30 03:49:43;;;;;;;1.87;1.87;;;6.00;99.90;;;6.66;94.96;96549.78;5258524;28;20204;-76
2021/01/30 03:52:15;;;;;;;1.80;1.70;;;6.00;99.90;;;6.65;94.98;96542.97;5251614;28;20201;-75
2021/01/30 03:54:48;;;;;;;2.20;2.10;;;6.00;99.90;;;6.58;95.15;96548.56;5265110;28;20303;-75
2021/01/30 03:57:21;;;;;;;1.83;1.73;;;6.00;99.90;;;6.66;94.94;96554.88;5270312;28;20278;-75
2021/01/30 03:59:53;;;;;;;2.13;2.03;;;6.00;99.90;;;6.63;95.60;96544.56;5271638;28;20286;-75
2021/01/30 04:02:25;;;;;;;1.90;1.80;;;6.00;99.90;;;6.49;96.48;96543.84;5261333;28;20307;-76
2021/01/30 04:04:57;;;;;;;2.20;2.10;;;6.00;99.90;;;6.47;96.67;96547.13;5250914;28;20226;-75
2021/01/30 04:07:29;;;;;;;2.53;2.43;;;5.90;99.90;;;6.44;97.33;96540.22;5250487;28;20280;-75
2021/01/30 04:10:04;;;;;;;2.00;1.90;;;5.90;99.90;;;6.42;97.85;96540.94;5250072;28;20258;-75
2021/01/30 04:12:36;;;;;;;2.43;1.83;;;5.90;99.90;;;6.46;97.08;96542.84;5250064;28;20249;-75
2021/01/30 04:15:12;;;;;;;1.70;1.70;;;5.90;99.90;;;6.42;97.83;96535.88;5250789;28;20648;-75
2021/01/30 04:17:44;;;;;;;2.30;2.10;;;5.90;99.90;;;6.51;97.73;96538.88;5270798;28;20280;-76
2021/01/30 04:20:24;;;;;;;2.00;1.90;;;5.90;99.90;;;6.64;96.52;96530.19;5271306;28;20215;-74
2021/01/30 04:22:57;;;;;;;2.10;2.03;;;6.00;99.90;;;6.68;96.69;96517.75;5251242;28;20624;-75
2021/01/30 04:25:31;;;;;;;2.90;2.60;;;6.00;99.90;;;6.65;96.89;96517.59;5252982;28;20200;-73
2021/01/30 04:28:06;;;;;;;2.30;2.20;;;6.00;99.90;;;6.58;97.25;96515.56;5248638;28;20200;-75
2021/01/30 04:30:38;;;;;;;2.63;2.03;;;6.00;99.90;;;6.49;97.60;96503.25;5252285;28;20687;-73
2021/01/30 04:33:12;;;;;;;1.90;1.80;;;6.00;99.90;;;6.54;97.85;96503.47;5256861;28;20275;-75
2021/01/30 04:35:44;;;;;;;2.13;2.03;;;6.00;99.90;;;6.50;97.97;96494.84;5270304;28;20287;-75
2021/01/30 04:38:16;;;;;;;2.30;2.20;;;5.90;99.90;;;6.48;97.58;96498.09;5269239;28;20206;-76
2021/01/30 04:40:55;;;;;;;2.30;2.10;;;5.90;99.90;;;6.52;98.15;96492.38;5270059;28;20204;-76
2021/01/30 04:43:33;;;;;;;2.33;2.13;;;5.90;99.90;;;6.45;97.38;96493.75;5251192;28;20329;-75
2021/01/30 04:46:15;;;;;;;2.20;2.10;;;5.90;99.90;;;6.42;98.21;96488.50;5262206;28;20674;-75
2021/01/30 04:48:58;;;;;;;2.27;2.17;;;5.90;99.90;;;6.44;97.71;96478.44;5270198;28;20215;-75
2021/01/30 04:51:42;;;;;;;2.20;2.00;;;5.90;99.90;;;6.44;98.20;96475.88;5252918;28;20636;-74
2021/01/30 04:54:29;;;;;;;2.13;2.03;;;5.90;99.90;;;6.64;97.26;96476.88;5249707;28;20223;-75
2021/01/30 04:57:26;;;;;;;2.20;2.00;;;6.00;99.90;;;6.64;97.09;96477.78;5260658;28;20197;-76
2021/01/30 05:00:36;;;;;;;2.73;2.00;;;6.00;99.90;;;6.59;97.66;96470.72;5249262;28;20526;-76
2021/01/30 05:03:36;;;;;;;1.90;1.80;;;6.00;99.90;;;6.69;97.28;96473.78;5247882;28;20220;-75
2021/01/30 05:06:15;;;;;;;2.00;1.90;;;6.00;99.90;;;6.71;96.31;96472.19;5248784;28;20631;-75
2021/01/30 05:08:58;;;;;;;2.50;2.30;;;6.10;99.90;;;6.73;95.53;96470.59;5248257;28;20188;-75
2021/01/30 05:11:34;;;;;;;2.07;1.70;;;6.10;99.90;;;6.77;95.81;96457.25;5253052;28;20192;-75
2021/01/30 05:14:12;;;;;;;2.00;1.93;;;6.20;99.90;;;6.83;95.51;96461.75;5270038;28;20224;-76
2021/01/30 05:17:01;;;;;;;2.40;1.97;;;6.20;99.90;;;6.97;93.90;96453.13;5269177;28;20204;-76
2021/01/30 05:19:39;;;;;;;2.27;2.07;;;6.30;99.90;;;6.95;93.94;96456.41;5270787;28;20675;-74
2021/01/30 05:22:15;;;;;;;2.70;2.07;;;6.30;99.90;;;6.96;92.65;96451.41;5261072;28;20216;-74
2021/01/30 05:24:48;;;;;;;2.47;2.27;;;6.30;99.90;;;6.95;93.67;96451.31;5249668;28;20196;-73
2021/01/30 05:27:38;;;;;;;2.70;2.50;;;6.30;99.90;;;6.86;93.34;96456.81;5249666;28;20232;-72
2021/01/30 05:30:16;;;;;;;2.37;2.27;;;6.30;99.90;;;6.88;93.33;96454.38;5250197;28;20197;-75
2021/01/30 05:33:08;;;;;;;1.80;1.70;;;6.40;99.90;;;6.84;94.58;96448.28;5270989;28;20701;-75
2021/01/30 05:35:49;;;;;;;2.57;1.87;;;6.30;99.90;;;6.82;94.21;96451.53;5270590;28;20223;-74
2021/01/30 05:38:45;;;;;;;2.40;2.20;;;6.20;99.90;;;6.81;93.68;96453.22;5269105;28;20206;-75
2021/01/30 05:41:32;;;;;;;2.93;2.60;;;6.20;99.90;;;6.88;94.23;96451.84;5269970;28;20200;-72
2021/01/30 05:44:12;;;;;;;3.23;2.10;;;6.20;99.90;;;6.90;94.14;96442.63;5268036;28;20216;-75
2021/01/30 05:46:49;;;;;;;2.90;2.10;;;6.30;99.90;;;6.81;93.86;96447.25;5268626;28;20200;-75
2021/01/30 05:49:28;;;;;;;5.70;2.60;;;6.20;99.90;;;6.73;94.18;96447.75;5268866;28;20221;-75
2021/01/30 05:52:09;;;;;;;2.97;2.40;;;6.20;99.90;;;6.68;95.29;96436.50;5268785;28;20191;-74
2021/01/30 05:54:41;;;;;;;2.17;1.97;;;6.20;99.90;;;6.71;94.68;96435.78;5266119;28;20215;-75
2021/01/30 05:57:16;;;;;;;3.23;2.37;;;6.10;99.90;;;6.71;94.58;96445.94;5251249;28;20218;-75
2021/01/30 05:59:51;;;;;;;4.17;2.63;;;6.10;99.90;;;6.76;95.41;96439.41;5247054;28;20211;-75
2021/01/30 06:02:27;;;;;;;4.40;2.10;;;6.20;99.90;;;6.71;94.81;96439.19;5246798;28;20349;-75
2021/01/30 06:05:17;;;;;;;3.27;2.50;;;6.10;99.90;;;6.69;94.37;96430.63;5247369;28;20200;-75
2021/01/30 06:07:49;;;;;;;3.23;2.30;;;6.10;99.90;;;6.70;95.53;96429.84;5246305;28;20283;-75
2021/01/30 06:10:30;;;;;;;6.10;2.27;;;6.10;99.90;;;6.64;94.62;96424.47;5247502;28;20279;-74
2021/01/30 06:13:12;;;;;;;3.50;2.07;;;6.10;99.90;;;6.66;93.77;96433.00;5246884;28;20647;-75
2021/01/30 06:15:48;;;;;;;4.90;2.50;;;6.10;99.90;;;6.73;94.33;96424.03;5246868;28;20196;-75
2021/01/30 06:18:34;;;;;;;2.97;2.17;;;6.10;99.90;;;6.58;94.51;96424.19;5247893;28;20291;-75
2021/01/30 06:21:12;;;;;;;3.90;2.60;;;6.00;99.90;;;6.61;93.88;96438.66;5247730;28;20240;-75
2021/01/30 06:24:06;;;;;;;4.90;2.60;;;6.10;99.90;;;6.56;94.32;96429.97;5245791;28;20311;-76
2021/01/30 06:26:43;;;;;;;5.13;2.43;;;6.00;99.90;;;6.65;94.32;96425.34;5261273;28;20199;-74
2021/01/30 06:29:36;;;;;;;4.87;2.77;;;6.00;99.90;;;6.65;94.04;96426.19;5273266;28;20230;-75
2021/01/30 06:32:23;;;;;;;3.67;2.40;;;6.10;99.90;;;6.56;95.15;96418.16;5258462;28;20287;-75
2021/01/30 06:35:12;;;;;;;5.53;2.87;;;6.10;99.90;;;6.54;94.92;96427.34;5253514;28;20204;-75
2021/01/30 06:37:48;;;;;;;5.13;3.03;;;6.00;99.90;;;6.62;94.07;96423.50;5261656;28;20192;-73
2021/01/30 06:40:25;;;;;;;4.80;2.53;;;6.10;99.90;;;6.52;94.01;96426.38;5246056;28;20228;-72
2021/01/30 06:43:07;;;;;;;4.00;2.50;;;6.00;99.90;;;6.51;95.20;96422.97;5260974;28;20986;-73
2021/01/30 06:45:42;;;;;;;5.70;3.03;;;6.00;99.90;;;6.55;95.67;96429.06;5264004;28;20206;-72
2021/01/30 06:48:26;;;;;;;6.43;2.30;;;6.00;99.90;;;6.70;94.78;96429.84;5259490;28;20203;-73
2021/01/30 06:51:01;;;;;;;4.10;2.60;;;6.00;99.90;;;6.71;95.05;96428.16;5246284;28;20206;-74
2021/01/30 06:53:33;;;;;;;5.40;2.60;;;6.10;99.90;;;6.64;95.04;96428.66;5245608;28;20656;-72
2021/01/30 06:56:14;;;;;;;4.97;2.73;;;6.10;99.90;;;6.63;95.07;96437.94;5251078;28;20200;-72
2021/01/30 06:58:48;;;;;;;5.47;2.60;;;6.00;99.90;;;6.72;94.98;96433.34;5244357;28;20624;-72
2021/01/30 07:01:23;;;;;;;5.17;2.70;;;6.00;99.90;;;6.65;95.05;96430.41;5251794;28;20200;-74
2021/01/30 07:04:37;;;;;;;5.23;2.57;;;6.00;99.90;;;6.65;94.53;96428.75;5248378;28;20227;-72
2021/01/30 07:07:21;;;;;;;5.07;2.97;;;6.00;99.90;;;6.60;93.36;96427.63;5248383;28;20197;-73
2021/01/30 07:10:15;;;;;;;4.23;2.47;;;6.00;99.90;;;6.57;92.56;96417.34;5250349;28;20288;-73
2021/01/30 07:13:15;;;;;;;5.30;2.53;;;5.90;99.90;;;6.55;94.09;96416.38;5248558;28;20217;-73
2021/01/30 07:16:05;;;;;;;4.63;2.50;;;5.90;99.90;;;6.49;94.50;96418.63;5250514;28;20200;-73
2021/01/30 07:18:52;;;;;;;9.23;2.90;;;5.90;99.90;;;6.53;94.22;96407.84;5250167;28;20205;-73
2021/01/30 07:21:28;;;;;;;5.23;2.60;;;5.90;99.90;;;6.59;94.06;96415.75;5268966;28;20214;-73
2021/01/30 07:24:17;;;;;;;7.30;3.20;;;5.80;99.90;;;6.58;93.44;96419.09;5252482;28;20319;-73
2021/01/30 07:26:55;;;;;;;6.30;3.13;;;5.90;99.90;;;6.58;93.32;96413.13;5255427;28;20206;-73
2021/01/30 07:29:46;;;;;;;7.63;3.07;;;5.90;99.90;;;6.56;94.32;96419.81;5254938;28;20265;-73
2021/01/30 07:32:26;;;;;;;7.90;3.20;;;5.90;99.90;;;6.83;93.29;96420.25;5248815;28;20189;-73
2021/01/30 07:35:10;;;;;;;7.27;3.60;;;6.00;99.90;;;6.75;92.57;96418.25;5249275;28;20196;-73
2021/01/30 07:37:53;;;;;;;5.83;3.23;;;6.00;99.90;;;6.67;92.63;96419.53;5248752;28;20195;-73
2021/01/30 07:40:41;;;;;;;4.57;2.80;;;6.00;99.90;;;6.72;93.77;96418.09;5248638;28;20197;-73
2021/01/30 07:43:17;;;;;;;6.17;3.33;;;6.00;99.90;;;6.73;93.29;96424.91;5251965;28;20311;-73
2021/01/30 07:46:06;;;;;;;4.90;3.30;;;6.00;99.90;;;6.69;92.65;96417.06;5253817;28;20206;-73
2021/01/30 07:48:48;;;;;;;6.63;3.30;;;6.00;99.90;;;6.67;92.66;96427.16;5266379;28;20287;-73
2021/01/30 07:51:27;;;;;;;7.17;2.87;;;6.00;99.90;;;6.63;92.59;96425.25;5258821;28;20198;-73
2021/01/30 07:53:59;;;;;;;9.80;3.40;;;6.00;99.90;;;6.58;93.02;96408.03;5266362;28;20222;-73
2021/01/30 07:57:04;;;;;;;6.37;3.53;;;6.00;99.90;;;6.62;93.24;96413.34;5256916;28;20290;-74
2021/01/30 07:59:42;;;;;;;6.37;3.17;;;6.00;99.90;;;6.67;94.17;96409.38;5250553;28;20231;-74
2021/01/30 08:03:14;;;;;;;7.97;3.70;;;6.10;99.90;;;6.72;93.69;96410.47;5268105;28;20218;-73
2021/01/30 08:06:09;;;;;;;6.20;3.33;;;6.10;99.90;;;6.81;94.08;96402.44;5249490;28;20661;-73
2021/01/30 08:08:50;;;;;;;6.13;3.40;;;6.20;99.90;;;6.85;94.88;96403.44;5250470;28;20199;-73
2021/01/30 08:11:28;;;;;;;6.00;3.40;;;6.20;99.90;;;6.84;94.84;96394.06;5261805;28;20202;-74
2021/01/30 08:14:21;;;;;;;5.93;3.33;;;6.20;99.90;;;6.85;94.02;96394.16;5267475;28;20238;-73
2021/01/30 08:17:03;;;;;;;7.30;3.53;;;6.20;99.90;;;6.85;93.78;96399.22;5263247;28;20583;-73
2021/01/30 08:20:00;;;;;;;9.23;3.43;;;6.20;99.90;;;6.89;93.87;96392.63;5272733;28;20233;-73
2021/01/30 08:22:47;;;;;;;8.40;3.30;;;6.30;99.90;;;6.97;94.01;96389.63;5271945;28;20277;-73
2021/01/30 08:25:31;;;;;;;7.00;3.07;;;6.30;99.90;;;7.09;93.82;96384.25;5272054;28;20199;-73
2021/01/30 08:28:15;;;;;;;7.80;3.30;;;6.30;99.90;;;7.31;92.46;96385.25;5270480;28;20191;-73
2021/01/30 08:30:54;;;;;;;11.27;4.03;;;6.40;99.90;;;7.29;91.24;96382.63;5270152;28;20676;-73
2021/01/30 08:33:26;;;;;;;6.30;3.50;;;6.50;99.90;;;7.22;91.08;96384.03;5269785;28;20706;-74
2021/01/30 08:35:59;;;;;;;7.00;3.50;;;6.50;99.90;;;7.29;92.51;96386.84;5269417;28;20204;-74
2021/01/30 08:38:38;;;;;;;8.70;3.57;;;6.60;99.90;;;7.39;91.61;96378.84;5269472;28;20200;-73
2021/01/30 08:41:40;;;;;;;5.90;3.07;;;6.70;99.90;;;7.33;90.33;96381.13;5265828;28;20204;-73
2021/01/30 08:44:39;;;;;;;10.17;4.30;;;6.70;99.90;;;7.41;89.42;96380.66;5257512;28;20298;-73
2021/01/30 08:47:19;;;;;;;8.53;3.60;;;6.70;99.90;;;7.48;90.07;96379.25;5275174;28;20227;-75
2021/01/30 08:50:09;;;;;;;7.63;4.27;;;6.80;99.90;;;7.43;88.79;96390.88;5262995;28;20633;-76
2021/01/30 08:52:51;;;;;;;6.30;3.60;;;6.80;99.90;;;7.38;87.45;96377.09;5249553;28;20676;-75
2021/01/30 08:55:52;;;;;;;9.13;4.70;;;6.80;99.90;;;7.43;88.12;96380.72;5248763;28;20199;-77
2021/01/30 08:58:51;;;;;;;8.20;4.23;;;6.80;99.90;;;7.52;90.32;96378.56;5262959;28;20256;-75
2021/01/30 09:01:48;;;;;;;9.27;4.40;;;6.80;99.90;;;7.48;89.78;96371.63;5258170;28;20745;-75
2021/01/30 09:05:00;;;;;;;7.90;4.80;;;6.80;99.90;;;7.51;90.88;96364.13;5247997;28;20232;-75
2021/01/30 09:07:46;;;;;;;8.53;4.00;;;6.90;99.90;;;7.59;91.28;96361.94;5247571;28;20188;-75
2021/01/30 09:10:35;;;;;;;7.87;3.43;;;6.90;99.90;;;7.74;91.45;96361.75;5246515;28;20228;-76
2021/01/30 09:13:13;;;;;;;7.10;3.63;;;6.90;99.90;;;7.78;90.74;96358.50;5249184;28;20285;-75
2021/01/30 09:16:02;;;;;;;11.87;4.10;;;7.00;99.90;;;7.85;89.60;96360.53;5267471;28;20191;-76
2021/01/30 09:18:47;;;;;;;6.33;3.70;;;7.10;99.90;;;7.90;89.46;96361.59;5265760;28;20200;-76
2021/01/30 09:21:45;;;;;;;9.60;3.73;;;7.10;99.90;;;7.97;90.09;96355.97;5267335;28;20238;-75
2021/01/30 09:24:49;;;;;;;9.37;4.33;;;7.20;99.90;;;8.19;88.36;96356.88;5266845;28;20299;-76
2021/01/30 09:27:26;;;;;;;7.43;3.97;;;7.20;99.90;;;8.13;87.81;96349.84;5267204;28;20199;-77
2021/01/30 09:30:10;;;;;;;8.10;3.97;;;7.30;99.90;;;8.19;86.18;96349.25;5267734;28;20685;-75
2021/01/30 09:32:45;;;;;;;12.03;6.67;;;7.40;99.90;;;8.22;85.50;96341.72;5267245;28;20275;-75
2021/01/30 09:35:22;;;;;;;11.23;4.30;;;7.40;99.90;;;8.29;87.45;96343.72;5266121;28;20618;-76
2021/01/30 09:37:55;;;;;;;7.30;3.83;;;7.50;99.90;;;8.43;85.37;96347.72;5246493;28;20212;-75
2021/01/30 09:40:31;;;;;;;7.53;3.67;;;7.70;99.90;;;8.51;87.26;96341.25;5267341;28;20200;-76
2021/01/30 09:43:07;;;;;;;6.60;3.83;;;7.70;99.90;;;8.62;84.08;96345.94;5266589;28;20247;-76
2021/01/30 09:45:49;;;;;;;7.22;3.47;;;7.80;99.90;;;8.71;84.48;96343.75;5260912;28;20202;-76
2021/01/30 09:48:21;;;;;;;6.93;4.13;;;7.90;99.90;;;8.71;86.79;96348.84;5246637;28;20695;-75
2021/01/30 09:50:57;;;;;;;8.18;3.47;;;7.90;99.90;;;8.75;83.29;96350.69;5245552;28;20224;-76
2021/01/30 09:53:35;;;;;;;9.23;4.05;;;7.90;99.90;;;8.91;85.34;96339.41;5246449;28;20870;-76
2021/01/30 09:56:12;;;;;;;10.48;3.80;;;8.00;99.90;;;8.94;83.22;96347.19;5259820;28;20192;-77
2021/01/30 09:58:53;;;;;;;8.60;3.92;;;8.10;99.90;;;8.99;81.49;96344.00;5247705;28;20275;-74
2021/01/30 10:01:32;;;;;;;7.85;3.97;;;8.10;99.90;;;9.11;81.94;96343.59;5254783;28;20192;-76
2021/01/30 10:04:22;;;;;;;10.35;4.22;;;8.10;99.90;;;9.14;80.25;96332.66;5265940;28;20219;-76
2021/01/30 10:07:06;;;;;;;13.73;7.38;;;8.10;99.90;;;9.12;79.36;96331.72;5266713;28;20275;-75
2021/01/30 10:09:41;;;;;;;10.73;5.40;;;8.10;99.90;;;9.21;79.05;96321.84;5263761;28;20191;-75
2021/01/30 10:12:17;;;;;;;9.77;4.70;;;8.10;99.90;;;9.13;78.55;96330.91;5264538;28;20222;-75
2021/01/30 10:14:53;;;;;;;7.70;4.28;;;8.10;99.90;;;9.25;77.68;96318.63;5262481;28;20712;-75
2021/01/30 10:17:31;;;;;;;10.30;4.20;;;8.10;99.90;;;9.16;79.31;96323.41;5256822;28;20207;-74
2021/01/30 10:20:11;;;;;;;9.25;3.95;;;8.10;99.90;;;9.14;76.73;96319.91;5265338;28;20208;-75
2021/01/30 10:22:45;;;;;;;9.63;3.70;;;8.20;99.90;;;9.12;79.53;96317.28;5267922;28;20756;-75
2021/01/30 10:25:22;;;;;;;8.60;4.30;;;8.20;99.90;;;9.24;78.53;96314.31;5267336;28;20270;-75
2021/01/30 10:28:07;;;;;;;7.82;3.15;;;8.20;99.90;;;9.13;77.84;96307.94;5266865;28;20651;-75
2021/01/30 10:30:39;;;;;;;10.00;4.68;;;8.10;99.90;;;9.25;77.02;96309.28;5255900;28;20263;-75
2021/01/30 10:33:14;;;;;;;10.68;4.40;;;8.20;99.90;;;9.26;77.19;96299.97;5258020;28;20221;-75
2021/01/30 10:35:50;;;;;;;12.68;7.07;;;8.30;99.90;;;9.26;77.00;96299.97;5266024;28;20195;-75
2021/01/30 10:38:26;;;;;;;7.05;3.65;;;8.30;99.90;;;9.45;77.15;96293.84;5250781;28;20832;-76
2021/01/30 10:41:03;;;;;;;9.88;3.80;;;8.50;99.90;;;9.50;76.34;96294.00;5250419;28;20296;-75
2021/01/30 10:43:37;;;;;;;9.25;4.15;;;8.60;99.90;;;9.43;75.63;96295.47;5272123;28;20230;-74
2021/01/30 10:46:20;;;;;;;9.80;3.47;;;8.60;99.90;;;9.45;78.51;96289.63;5256318;28;20286;-75
2021/01/30 10:48:53;;;;;;;9.57;3.97;;;8.60;99.90;;;9.58;77.02;96297.69;5265330;28;20651;-76
2021/01/30 10:51:28;;;;;;;12.18;3.28;;;8.60;99.90;;;9.80;75.41;96295.09;5265234;28;20643;-75
2021/01/30 10:54:18;;;;;;;7.65;3.45;;;8.80;99.90;;;9.96;75.38;96290.50;5251424;28;20220;-75
2021/01/30 10:57:27;;;;;;;6.03;3.70;;;8.90;99.90;;;9.92;74.62;96276.78;5250746;28;20204;-75
2021/01/30 11:00:03;;;;;;;8.45;3.72;;;9.00;99.90;;;9.99;74.85;96293.19;5250141;28;20208;-76
2021/01/30 11:02:40;;;;;;;9.35;3.95;;;9.10;99.90;;;10.20;73.28;96281.09;5256616;28;20915;-78
2021/01/30 11:05:29;;;;;;;6.72;3.38;;;9.20;99.90;;;10.04;73.05;96286.53;5253775;28;20211;-75
2021/01/30 11:08:05;;;;;;;8.40;3.78;;;9.00;99.90;;;9.89;72.87;96285.19;5268490;28;20199;-77
2021/01/30 11:10:41;;;;;;;11.65;3.88;;;8.80;99.90;;;9.70;73.50;96283.72;5265171;28;20297;-78
2021/01/30 11:13:24;;;;;;;9.57;3.33;;;8.80;99.90;;;9.79;74.26;96275.50;5261926;28;20330;-78
2021/01/30 11:16:09;;;;;;;7.50;3.40;;;8.80;99.90;;;9.72;73.89;96281.19;5264520;28;20262;-77
2021/01/30 11:18:47;;;;;;;6.95;3.75;;;8.80;99.90;;;9.75;73.93;96271.09;5262150;28;20222;-74
2021/01/30 11:21:33;;;;;;;5.90;3.40;;;8.80;99.90;;;9.83;73.94;96269.66;5264129;28;20214;-74
2021/01/30 11:24:21;;;;;;;6.70;3.20;;;8.70;99.90;;;9.85;74.01;96270.59;5270054;28;20230;-73
2021/01/30 11:26:53;;;;;;;5.97;3.15;;;8.80;99.90;;;9.86;72.07;96262.13;5258872;28;20202;-74
2021/01/30 11:29:47;;;;;;;7.40;2.97;;;8.70;99.90;;;9.82;73.72;96262.84;5257893;28;20275;-75